createdAt,value
2023-02-13T00:00:23.122Z,100409.38
2023-02-13T00:03:11.002Z,100402.63
2023-02-13T00:05:59.031Z,100398.47
2023-02-13T00:08:48.185Z,100398.69
2023-02-13T00:11:35.744Z,100398.88
2023-02-13T00:14:23.355Z,100395.63
2023-02-13T00:17:11.249Z,100394.97
2023-02-13T00:19:59.205Z,100389.94
2023-02-13T00:22:46.542Z,100396.28
2023-02-13T00:25:35.502Z,100399.09
2023-02-13T00:28:23.504Z,100392.31
2023-02-13T00:31:17.151Z,100395.13
2023-02-13T00:34:04.859Z,100391.75
2023-02-13T00:36:52.482Z,100397.19
2023-02-13T00:39:39.824Z,100389.50
2023-02-13T00:42:29.072Z,100392.31
2023-02-13T00:45:17.247Z,100392.50
2023-02-13T00:48:04.672Z,100383.03
2023-02-13T00:50:52.816Z,100386.69
2023-02-13T00:53:41.127Z,100389.38
2023-02-13T00:56:29.329Z,100396.53
2023-02-13T00:59:18.783Z,100386.22
2023-02-13T01:02:06.339Z,100389.00
2023-02-13T01:04:54.139Z,100399.38
2023-02-13T01:07:43.073Z,100391.69
2023-02-13T01:10:30.866Z,100399.63
2023-02-13T01:13:19.839Z,100399.75
2023-02-13T01:16:09.518Z,100397.31
2023-02-13T01:18:57.430Z,100385.28
2023-02-13T01:21:45.363Z,100386.31
2023-02-13T01:24:34.102Z,100394.06
2023-02-13T01:27:21.835Z,100389.03
2023-02-13T01:30:13.762Z,100392.66
2023-02-13T01:33:03.137Z,100390.09
2023-02-13T01:35:50.874Z,100396.22
2023-02-13T01:38:39.181Z,100397.16
2023-02-13T01:41:29.018Z,100396.22
2023-02-13T01:44:54.051Z,100396.28
2023-02-13T01:47:45.969Z,100389.44
2023-02-13T01:50:42.270Z,100394.69
2023-02-13T01:53:36.766Z,100395.63
2023-02-13T01:56:32.822Z,100387.75
2023-02-13T01:59:28.195Z,100382.59
2023-02-13T02:02:17.686Z,100386.03
2023-02-13T02:05:08.788Z,100401.72
2023-02-13T02:08:01.760Z,100391.22
2023-02-13T02:10:49.375Z,100393.69
2023-02-13T02:13:38.733Z,100386.75
2023-02-13T02:16:28.052Z,100380.75
2023-02-13T02:19:33.897Z,100380.75
2023-02-13T02:22:59.796Z,100391.91
2023-02-13T02:26:27.354Z,100379.69
2023-02-13T02:29:58.418Z,100380.56
2023-02-13T02:33:09.847Z,100379.88
2023-02-13T02:36:16.745Z,100382.59
2023-02-13T02:39:16.177Z,100376.53
2023-02-13T02:42:21.175Z,100386.22
2023-02-13T02:45:20.848Z,100384.59
2023-02-13T02:48:40.460Z,100389.13
2023-02-13T02:51:39.468Z,100392.69
2023-02-13T02:54:49.679Z,100385.75
2023-02-13T02:58:04.286Z,100378.81
2023-02-13T03:01:12.801Z,100391.03
2023-02-13T03:04:26.458Z,100395.47
2023-02-13T03:07:18.682Z,100385.97
2023-02-13T03:10:30.383Z,100381.69
2023-02-13T03:13:40.429Z,100392.22
2023-02-13T03:16:46.222Z,100384.41
2023-02-13T03:20:13.867Z,100386.22
2023-02-13T03:23:24.174Z,100381.91
2023-02-13T03:26:50.120Z,100395.94
2023-02-13T03:30:08.842Z,100394.28
2023-02-13T03:33:28.482Z,100407.28
2023-02-13T03:36:51.614Z,100405.44
2023-02-13T03:39:54.851Z,100403.75
2023-02-13T03:42:49.833Z,100400.38
2023-02-13T03:45:54.728Z,100397.88
2023-02-13T03:49:02.384Z,100398.84
2023-02-13T03:51:58.390Z,100401.59
2023-02-13T03:55:11.718Z,100404.25
2023-02-13T03:58:21.266Z,100406.94
2023-02-13T04:01:13.335Z,100412.22
2023-02-13T04:04:12.976Z,100417.50
2023-02-13T04:07:07.446Z,100410.56
2023-02-13T04:09:54.719Z,100406.19
2023-02-13T04:12:58.912Z,100402.75
2023-02-13T04:15:53.678Z,100403.69
2023-02-13T04:18:42.381Z,100408.97
2023-02-13T04:21:33.922Z,100411.63
2023-02-13T04:24:23.044Z,100408.97
2023-02-13T04:27:15.203Z,100410.72
2023-02-13T04:30:03.147Z,100406.41
2023-02-13T04:32:51.788Z,100410.81
2023-02-13T04:35:39.663Z,100414.31
2023-02-13T04:38:27.025Z,100414.31
2023-02-13T04:41:18.669Z,100409.09
2023-02-13T04:44:08.628Z,100407.31
2023-02-13T04:46:56.573Z,100401.25
2023-02-13T04:49:44.174Z,100407.31
2023-02-13T04:52:31.834Z,100405.63
2023-02-13T04:55:19.778Z,100409.06
2023-02-13T04:58:09.449Z,100409.94
2023-02-13T05:00:57.940Z,100412.53
2023-02-13T05:03:45.954Z,100410.84
2023-02-13T05:06:33.698Z,100409.97
2023-02-13T05:09:21.707Z,100416.94
2023-02-13T05:12:11.733Z,100414.31
2023-02-13T05:15:01.149Z,100411.72
2023-02-13T05:17:48.810Z,100412.59
2023-02-13T05:20:36.278Z,100413.50
2023-02-13T05:23:22.873Z,100421.34
2023-02-13T05:26:10.047Z,100429.91
2023-02-13T05:29:15.440Z,100424.63
2023-02-13T05:32:05.002Z,100424.50
2023-02-13T05:34:52.882Z,100431.44
2023-02-13T05:37:40.372Z,100424.47
2023-02-13T05:40:27.857Z,100430.63
2023-02-13T05:43:15.839Z,100431.50
2023-02-13T05:46:06.276Z,100438.44
2023-02-13T05:48:55.516Z,100440.22
2023-02-13T05:51:43.559Z,100440.28
2023-02-13T05:54:31.128Z,100441.22
2023-02-13T05:57:18.999Z,100442.19
2023-02-13T06:00:08.553Z,100450.03
2023-02-13T06:02:56.005Z,100442.25
2023-02-13T06:05:45.061Z,100447.50
2023-02-13T06:08:32.744Z,100451.94
2023-02-13T06:11:20.976Z,100446.03
2023-02-13T06:14:08.615Z,100459.00
2023-02-13T06:16:56.058Z,100458.97
2023-02-13T06:19:43.613Z,100459.84
2023-02-13T06:22:32.572Z,100454.72
2023-02-13T06:25:22.721Z,100459.94
2023-02-13T06:28:10.622Z,100463.44
2023-02-13T06:31:02.150Z,100469.59
2023-02-13T06:33:49.762Z,100473.16
2023-02-13T06:36:38.630Z,100473.19
2023-02-13T06:39:27.772Z,100473.22
2023-02-13T06:42:15.455Z,100478.59
2023-02-13T06:45:03.298Z,100481.13
2023-02-13T06:47:51.712Z,100481.97
2023-02-13T06:50:39.589Z,100487.19
2023-02-13T06:53:27.587Z,100484.56
2023-02-13T06:56:17.059Z,100493.28
2023-02-13T06:59:04.803Z,100500.22
2023-02-13T07:01:52.646Z,100503.72
2023-02-13T07:04:43.982Z,100500.22
2023-02-13T07:07:35.256Z,100504.56
2023-02-13T07:10:27.628Z,100508.16
2023-02-13T07:13:17.072Z,100501.16
2023-02-13T07:16:05.267Z,100505.44
2023-02-13T07:18:53.091Z,100514.22
2023-02-13T07:21:40.945Z,100506.34
2023-02-13T07:24:28.484Z,100515.03
2023-02-13T07:27:15.851Z,100515.75
2023-02-13T07:30:05.285Z,100515.66
2023-02-13T07:32:52.964Z,100512.84
2023-02-13T07:35:42.023Z,100510.28
2023-02-13T07:38:29.373Z,100513.72
2023-02-13T07:41:16.812Z,100506.69
2023-02-13T07:44:04.583Z,100512.69
2023-02-13T07:46:53.556Z,100511.66
2023-02-13T07:49:42.264Z,100517.72
2023-02-13T07:52:29.760Z,100519.41
2023-02-13T07:55:17.482Z,100521.91
2023-02-13T07:58:05.165Z,100514.81
2023-02-13T08:00:53.284Z,100516.47
2023-02-13T08:03:42.912Z,100515.59
2023-02-13T08:06:30.314Z,100516.44
2023-02-13T08:09:40.974Z,100516.34
2023-02-13T08:12:28.908Z,100513.75
2023-02-13T08:15:17.370Z,100513.94
2023-02-13T08:18:05.669Z,100509.34
2023-02-13T08:20:54.385Z,100512.75
2023-02-13T08:23:41.878Z,100523.06
2023-02-13T08:26:32.315Z,100523.13
2023-02-13T08:29:20.072Z,100517.75
2023-02-13T08:32:08.910Z,100523.78
2023-02-13T08:34:56.590Z,100523.75
2023-02-13T08:37:54.649Z,100526.28
2023-02-13T08:40:53.625Z,100524.78
2023-02-13T08:43:44.142Z,100517.63
2023-02-13T08:46:34.311Z,100526.03
2023-02-13T08:49:23.437Z,100519.66
2023-02-13T08:52:11.182Z,100524.13
2023-02-13T08:54:59.960Z,100530.25
2023-02-13T08:57:47.883Z,100525.69
2023-02-13T09:00:36.354Z,100523.91
2023-02-13T09:03:24.096Z,100530.25
2023-02-13T09:06:11.711Z,100524.41
2023-02-13T09:09:00.838Z,100523.97
2023-02-13T09:11:50.981Z,100525.69
2023-02-13T09:14:42.476Z,100528.72
2023-02-13T09:17:30.041Z,100515.84
2023-02-13T09:20:17.861Z,100520.56
2023-02-13T09:23:05.556Z,100520.25
2023-02-13T09:25:53.141Z,100518.16
2023-02-13T09:28:43.455Z,100519.34
2023-02-13T09:31:31.761Z,100520.31
2023-02-13T09:34:19.328Z,100511.16
2023-02-13T09:37:06.872Z,100514.19
2023-02-13T09:39:54.618Z,100514.59
2023-02-13T09:42:42.486Z,100515.78
2023-02-13T09:45:31.740Z,100511.88
2023-02-13T09:48:30.804Z,100517.69
2023-02-13T09:51:23.350Z,100524.13
2023-02-13T09:54:19.024Z,100519.19
2023-02-13T09:57:17.986Z,100516.47
2023-02-13T10:00:16.382Z,100522.00
2023-02-13T10:03:28.756Z,100519.88
2023-02-13T10:06:25.915Z,100519.66
2023-02-13T10:09:28.449Z,100520.13
2023-02-13T10:12:38.494Z,100515.19
2023-02-13T10:15:40.647Z,100515.63
2023-02-13T10:18:44.163Z,100512.47
2023-02-13T10:21:39.934Z,100506.75
2023-02-13T10:24:40.060Z,100509.56
2023-02-13T10:27:33.773Z,100516.28
2023-02-13T10:30:27.295Z,100516.41
2023-02-13T10:33:22.020Z,100511.66
2023-02-13T10:36:22.038Z,100514.31
2023-02-13T10:39:24.981Z,100510.66
2023-02-13T10:42:24.165Z,100508.00
2023-02-13T10:45:30.504Z,100495.13
2023-02-13T10:48:39.792Z,100499.63
2023-02-13T10:51:40.986Z,100493.75
2023-02-13T10:54:54.734Z,100487.94
2023-02-13T10:58:05.996Z,100494.53
2023-02-13T11:01:02.344Z,100493.97
2023-02-13T11:04:04.897Z,100488.91
2023-02-13T11:06:58.833Z,100482.28
2023-02-13T11:09:52.188Z,100475.69
2023-02-13T11:12:39.652Z,100468.09
2023-02-13T11:15:31.653Z,100471.13
2023-02-13T11:18:23.229Z,100458.47
2023-02-13T11:21:21.208Z,100461.97
2023-02-13T11:24:23.074Z,100457.13
2023-02-13T11:27:14.865Z,100452.47
2023-02-13T11:30:08.466Z,100452.13
2023-02-13T11:33:01.199Z,100455.22
2023-02-13T11:35:49.747Z,100457.94
2023-02-13T11:38:38.032Z,100459.47
2023-02-13T11:41:30.234Z,100453.38
2023-02-13T11:44:26.373Z,100446.47
2023-02-13T11:47:15.278Z,100457.78
2023-02-13T11:50:04.051Z,100452.03
2023-02-13T11:52:59.675Z,100451.13
2023-02-13T11:56:06.637Z,100449.16
2023-02-13T11:59:05.431Z,100441.06
2023-02-13T12:02:13.698Z,100436.78
2023-02-13T12:05:19.179Z,100439.22
2023-02-13T12:08:11.427Z,100430.84
2023-02-13T12:11:02.513Z,100420.31
2023-02-13T12:13:51.549Z,100412.28
2023-02-13T12:16:47.290Z,100409.41
2023-02-13T12:19:42.961Z,100403.28
2023-02-13T12:22:53.054Z,100403.09
2023-02-13T12:26:00.258Z,100397.09
2023-02-13T12:29:20.728Z,100387.44
2023-02-13T12:32:22.270Z,100386.50
2023-02-13T12:35:46.113Z,100376.63
2023-02-13T12:38:50.601Z,100376.47
2023-02-13T12:41:51.792Z,100371.69
2023-02-13T12:45:17.597Z,100365.59
2023-02-13T12:48:25.686Z,100361.94
2023-02-13T12:51:34.882Z,100349.97
2023-02-13T12:54:49.894Z,100340.78
2023-02-13T12:57:59.009Z,100338.00
2023-02-13T13:01:03.572Z,100343.16
2023-02-13T13:04:15.553Z,100337.38
2023-02-13T13:07:28.718Z,100341.78
2023-02-13T13:10:36.910Z,100337.78
2023-02-13T13:13:43.785Z,100329.22
2023-02-13T13:16:46.915Z,100336.72
2023-02-13T13:19:51.090Z,100328.47
2023-02-13T13:22:51.199Z,100300.16
2023-02-13T13:25:52.826Z,100321.81
2023-02-13T13:28:45.712Z,100319.91
2023-02-13T13:31:37.834Z,100311.75
2023-02-13T13:34:27.993Z,100296.06
2023-02-13T13:37:29.626Z,100311.00
2023-02-13T13:40:35.064Z,100296.78
2023-02-13T13:43:36.685Z,100297.94
2023-02-13T13:46:44.810Z,100300.41
2023-02-13T13:49:53.979Z,100295.97
2023-02-13T13:53:16.117Z,100302.19
2023-02-13T13:56:09.419Z,100297.25
2023-02-13T13:58:57.419Z,100301.25
2023-02-13T14:01:46.224Z,100301.22
2023-02-13T14:04:43.560Z,100273.03
2023-02-13T14:07:38.991Z,100274.63
2023-02-13T14:11:26.348Z,100287.66
2023-02-13T14:14:52.335Z,100284.97
2023-02-13T14:17:56.490Z,100272.47
2023-02-13T14:20:52.146Z,100277.22
2023-02-13T14:23:53.309Z,100286.63
2023-02-13T14:26:43.222Z,100277.63
2023-02-13T14:29:39.217Z,100269.69
2023-02-13T14:32:34.259Z,100276.56
2023-02-13T14:35:28.713Z,100277.66
2023-02-13T14:38:26.169Z,100286.16
2023-02-13T14:41:57.649Z,100280.00
2023-02-13T14:44:51.100Z,100283.75
2023-02-13T14:47:43.701Z,100278.41
2023-02-13T14:50:43.114Z,100275.28
2023-02-13T14:53:41.327Z,100287.31
2023-02-13T14:56:30.553Z,100275.03
2023-02-13T14:59:25.358Z,100254.22
2023-02-13T15:02:24.623Z,100247.44
2023-02-13T15:05:19.928Z,100245.50
2023-02-13T15:08:17.131Z,100257.28
2023-02-13T15:11:25.200Z,100262.59
2023-02-13T15:14:31.605Z,100262.34
2023-02-13T15:17:24.578Z,100267.59
2023-02-13T15:20:31.509Z,100241.47
2023-02-13T15:23:24.589Z,100239.13
2023-02-13T15:26:22.790Z,100256.34
2023-02-13T15:29:29.206Z,100257.56
2023-02-13T15:32:22.363Z,100259.75
2023-02-13T15:35:30.091Z,100263.00
2023-02-13T15:38:25.370Z,100264.28
2023-02-13T15:41:19.915Z,100261.59
2023-02-13T15:44:08.153Z,100258.53
2023-02-13T15:47:08.026Z,100255.50
2023-02-13T15:49:57.748Z,100250.69
2023-02-13T15:52:46.835Z,100245.22
2023-02-13T15:55:41.399Z,100248.56
2023-02-13T15:58:35.848Z,100249.47
2023-02-13T16:01:24.456Z,100251.34
2023-02-13T16:04:17.408Z,100255.00
2023-02-13T16:07:12.174Z,100255.25
2023-02-13T16:10:25.477Z,100252.19
2023-02-13T16:13:20.741Z,100257.13
2023-02-13T16:16:11.907Z,100266.25
2023-02-13T16:18:59.981Z,100262.97
2023-02-13T16:21:50.122Z,100273.00
2023-02-13T16:24:39.066Z,100269.88
2023-02-13T16:27:29.676Z,100272.94
2023-02-13T16:30:33.763Z,100274.22
2023-02-13T16:33:29.596Z,100268.41
2023-02-13T16:36:30.274Z,100275.84
2023-02-13T16:39:24.247Z,100286.88
2023-02-13T16:42:21.270Z,100283.88
2023-02-13T16:45:24.955Z,100285.19
2023-02-13T16:48:15.966Z,100282.88
2023-02-13T16:51:03.798Z,100291.09
2023-02-13T16:53:59.127Z,100297.34
2023-02-13T16:56:52.402Z,100293.13
2023-02-13T16:59:55.298Z,100300.34
2023-02-13T17:02:43.025Z,100286.38
2023-02-13T17:05:30.812Z,100292.63
2023-02-13T17:08:19.910Z,100300.72
2023-02-13T17:11:14.840Z,100308.72
2023-02-13T17:14:03.928Z,100307.06
2023-02-13T17:16:51.606Z,100316.75
2023-02-13T17:19:39.321Z,100330.94
2023-02-13T17:22:37.755Z,100330.91
2023-02-13T17:25:29.761Z,100323.81
2023-02-13T17:28:20.939Z,100329.81
2023-02-13T17:31:14.020Z,100331.50
2023-02-13T17:34:01.830Z,100336.63
2023-02-13T17:36:49.527Z,100333.78
2023-02-13T17:39:36.983Z,100333.59
2023-02-13T17:42:28.018Z,100329.84
2023-02-13T17:45:18.149Z,100327.84
2023-02-13T17:48:07.182Z,100330.22
2023-02-13T17:50:54.647Z,100332.53
2023-02-13T17:53:42.143Z,100334.00
2023-02-13T17:56:29.670Z,100327.50
2023-02-13T17:59:17.077Z,100333.25
2023-02-13T18:02:04.457Z,100332.94
2023-02-13T18:04:53.788Z,100336.09
2023-02-13T18:07:43.158Z,100340.06
2023-02-13T18:10:34.235Z,100345.75
2023-02-13T18:13:21.746Z,100340.94
2023-02-13T18:16:11.051Z,100337.00
2023-02-13T18:18:58.902Z,100345.25
2023-02-13T18:21:47.694Z,100342.22
2023-02-13T18:24:38.629Z,100353.09
2023-02-13T18:27:27.072Z,100342.06
2023-02-13T18:30:17.920Z,100346.84
2023-02-13T18:33:05.979Z,100350.75
2023-02-13T18:35:59.651Z,100352.94
2023-02-13T18:38:48.523Z,100354.19
2023-02-13T18:41:36.119Z,100344.91
2023-02-13T18:44:28.622Z,100354.00
2023-02-13T18:47:17.360Z,100350.78
2023-02-13T18:50:05.750Z,100352.84
2023-02-13T18:52:53.489Z,100357.56
2023-02-13T18:55:42.725Z,100357.88
2023-02-13T18:58:30.795Z,100366.06
2023-02-13T19:01:21.486Z,100364.53
2023-02-13T19:04:09.395Z,100365.66
2023-02-13T19:06:57.010Z,100366.91
2023-02-13T19:09:44.519Z,100364.50
2023-02-13T19:12:33.336Z,100361.28
2023-02-13T19:15:20.993Z,100358.97
2023-02-13T19:18:08.794Z,100360.94
2023-02-13T19:21:01.199Z,100356.75
2023-02-13T19:23:48.730Z,100356.13
2023-02-13T19:26:37.106Z,100356.41
2023-02-13T19:29:26.268Z,100356.66
2023-02-13T19:32:13.596Z,100361.16
2023-02-13T19:35:01.363Z,100362.28
2023-02-13T19:37:49.267Z,100368.63
2023-02-13T19:40:37.107Z,100364.50
2023-02-13T19:43:24.853Z,100376.94
2023-02-13T19:46:14.194Z,100380.66
2023-02-13T19:49:03.074Z,100378.22
2023-02-13T19:51:51.530Z,100374.09
2023-02-13T19:54:40.054Z,100383.13
2023-02-13T19:57:27.484Z,100379.84
2023-02-13T20:00:19.540Z,100383.56
2023-02-13T20:03:09.301Z,100386.31
2023-02-13T20:05:56.952Z,100381.25
2023-02-13T20:08:45.404Z,100381.88
2023-02-13T20:11:33.089Z,100381.28
2023-02-13T20:14:20.953Z,100389.28
2023-02-13T20:17:08.446Z,100397.19
2023-02-13T20:20:05.247Z,100393.81
2023-02-13T20:22:53.396Z,100387.88
2023-02-13T20:25:41.228Z,100388.09
2023-02-13T20:28:29.673Z,100382.09
2023-02-13T20:31:20.548Z,100389.19
2023-02-13T20:34:11.843Z,100388.84
2023-02-13T20:37:03.922Z,100392.56
2023-02-13T20:39:57.090Z,100390.41
2023-02-13T20:42:45.363Z,100386.78
2023-02-13T20:45:39.540Z,100386.78
2023-02-13T20:48:27.673Z,100383.72
2023-02-13T20:51:25.670Z,100383.72
2023-02-13T20:54:15.029Z,100380.03
2023-02-13T20:57:04.665Z,100376.31
2023-02-13T20:59:52.941Z,100383.28
2023-02-13T21:02:41.138Z,100389.31
2023-02-13T21:05:29.960Z,100393.69
2023-02-13T21:08:19.782Z,100394.59
2023-02-13T21:11:12.510Z,100398.81
2023-02-13T21:14:04.341Z,100393.63
2023-02-13T21:16:56.887Z,100394.50
2023-02-13T21:19:44.434Z,100386.53
2023-02-13T21:22:35.283Z,100381.19
2023-02-13T21:25:24.251Z,100377.75
2023-02-13T21:28:13.747Z,100380.25
2023-02-13T21:31:07.901Z,100371.47
2023-02-13T21:33:59.836Z,100361.69
2023-02-13T21:36:48.210Z,100365.13
2023-02-13T21:39:37.417Z,100373.78
2023-02-13T21:42:25.351Z,100370.28
2023-02-13T21:45:18.642Z,100372.75
2023-02-13T21:48:09.010Z,100360.38
2023-02-13T21:50:57.046Z,100361.16
2023-02-13T21:53:46.978Z,100360.28
2023-02-13T21:56:38.044Z,100358.38
2023-02-13T21:59:25.982Z,100363.56
2023-02-13T22:02:15.273Z,100354.00
2023-02-13T22:05:02.893Z,100363.53
2023-02-13T22:08:10.609Z,100363.47
2023-02-13T22:11:00.692Z,100362.94
2023-02-13T22:13:48.248Z,100363.78
2023-02-13T22:16:39.051Z,100366.94
2023-02-13T22:19:30.221Z,100370.53
2023-02-13T22:22:17.905Z,100365.09
2023-02-13T22:25:05.662Z,100362.63
2023-02-13T22:27:53.347Z,100365.09
2023-02-13T22:30:42.707Z,100362.53
2023-02-13T22:33:30.563Z,100365.09
2023-02-13T22:36:22.201Z,100361.59
2023-02-13T22:39:12.083Z,100362.44
2023-02-13T22:41:59.792Z,100367.78
2023-02-13T22:44:47.193Z,100369.72
2023-02-13T22:47:34.663Z,100373.13
2023-02-13T22:50:22.919Z,100380.09
2023-02-13T22:53:11.988Z,100382.66
2023-02-13T22:56:00.035Z,100373.78
2023-02-13T22:58:48.195Z,100369.50
2023-02-13T23:01:35.715Z,100366.91
2023-02-13T23:04:23.558Z,100370.53
2023-02-13T23:07:12.260Z,100368.75
2023-02-13T23:10:01.415Z,100367.00
2023-02-13T23:12:50.120Z,100354.72
2023-02-13T23:15:38.947Z,100364.38
2023-02-13T23:18:26.078Z,100349.59
2023-02-13T23:21:13.844Z,100349.47
2023-02-13T23:24:01.522Z,100351.22
2023-02-13T23:26:50.399Z,100347.69
2023-02-13T23:29:37.785Z,100347.69
2023-02-13T23:32:25.330Z,100355.59
2023-02-13T23:35:13.158Z,100350.34
2023-02-13T23:38:00.930Z,100348.59
2023-02-13T23:40:48.393Z,100345.97
2023-02-13T23:43:37.678Z,100352.06
2023-02-13T23:46:25.364Z,100345.97
2023-02-13T23:49:12.907Z,100342.44
2023-02-13T23:52:00.446Z,100360.84
2023-02-13T23:54:48.062Z,100353.03
2023-02-13T23:57:36.618Z,100347.69
